createdAt,value
2018-12-22T00:02:15.808Z,9.30
2018-12-22T00:04:44.335Z,7.37
2018-12-22T00:07:12.322Z,7.37
2018-12-22T00:09:40.345Z,8.30
2018-12-22T00:12:08.354Z,6.57
2018-12-22T00:14:36.323Z,9.37
2018-12-22T00:17:04.368Z,8.67
2018-12-22T00:19:32.445Z,6.70
2018-12-22T00:22:00.424Z,5.30
2018-12-22T00:24:28.377Z,4.67
2018-12-22T00:26:56.279Z,3.30
2018-12-22T00:29:24.295Z,5.27
2018-12-22T00:31:52.375Z,5.17
2018-12-22T00:34:20.355Z,3.90
2018-12-22T00:36:48.498Z,6.37
2018-12-22T00:39:16.551Z,4.63
2018-12-22T00:41:44.528Z,9.03
2018-12-22T00:44:12.564Z,6.93
2018-12-22T00:46:40.572Z,6.87
2018-12-22T00:49:08.511Z,6.00
2018-12-22T00:51:36.481Z,8.20
2018-12-22T00:54:04.470Z,6.07
2018-12-22T00:56:32.462Z,6.60
2018-12-22T00:59:00.587Z,4.83
2018-12-22T01:01:28.547Z,3.57
2018-12-22T01:03:56.469Z,4.07
2018-12-22T01:06:24.365Z,4.97
2018-12-22T01:08:52.348Z,8.60
2018-12-22T01:11:20.443Z,6.00
2018-12-22T01:13:48.414Z,6.90
2018-12-22T01:16:16.334Z,6.53
2018-12-22T01:18:44.322Z,6.63
2018-12-22T01:21:12.345Z,8.10
2018-12-22T01:23:40.328Z,5.67
2018-12-22T01:26:08.277Z,5.07
2018-12-22T01:28:39.570Z,5.40
2018-12-22T01:31:06.426Z,3.87
2018-12-22T01:33:34.398Z,4.30
2018-12-22T01:36:02.467Z,5.00
2018-12-22T01:38:30.499Z,5.17
2018-12-22T01:40:58.450Z,4.87
2018-12-22T01:43:26.369Z,3.90
2018-12-22T01:45:54.352Z,2.40
2018-12-22T01:48:22.330Z,5.87
2018-12-22T01:50:50.302Z,5.20
2018-12-22T01:53:18.273Z,3.53
2018-12-22T01:55:46.804Z,5.03
2018-12-22T01:58:14.752Z,4.47
2018-12-22T02:00:42.747Z,3.67
2018-12-22T02:03:10.703Z,7.17
2018-12-22T02:05:38.625Z,4.53
2018-12-22T02:08:06.824Z,4.70
2018-12-22T02:10:34.782Z,5.07
2018-12-22T02:13:02.771Z,2.97
2018-12-22T02:15:30.707Z,3.73
2018-12-22T02:17:58.672Z,3.97
2018-12-22T02:20:26.647Z,4.20
2018-12-22T02:22:54.599Z,5.00
2018-12-22T02:25:22.588Z,5.10
2018-12-22T02:27:50.677Z,6.30
2018-12-22T02:30:18.651Z,8.23
2018-12-22T02:32:46.591Z,6.47
2018-12-22T02:35:14.569Z,3.53
2018-12-22T02:37:42.505Z,5.03
2018-12-22T02:40:10.477Z,4.73
2018-12-22T02:42:38.457Z,4.07
2018-12-22T02:45:06.719Z,5.50
2018-12-22T02:47:34.682Z,3.40
2018-12-22T02:50:02.626Z,5.47
2018-12-22T02:52:30.596Z,4.57
2018-12-22T02:54:58.536Z,2.90
2018-12-22T02:57:26.491Z,4.23
2018-12-22T02:59:54.496Z,5.07
2018-12-22T03:02:22.513Z,3.33
2018-12-22T03:04:50.441Z,4.17
2018-12-22T03:07:18.415Z,2.83
2018-12-22T03:09:46.358Z,4.37
2018-12-22T03:12:14.333Z,4.63
2018-12-22T03:14:42.298Z,5.23
2018-12-22T03:17:10.202Z,4.47
2018-12-22T03:19:38.148Z,4.30
2018-12-22T03:22:06.287Z,5.53
2018-12-22T03:24:34.434Z,5.23
2018-12-22T03:27:02.904Z,5.57
2018-12-22T03:29:30.843Z,8.43
2018-12-22T03:31:58.869Z,4.73
2018-12-22T03:34:26.858Z,6.87
2018-12-22T03:36:54.799Z,5.23
2018-12-22T03:39:22.789Z,3.43
2018-12-22T03:41:50.702Z,3.17
2018-12-22T03:44:18.639Z,5.60
2018-12-22T03:46:46.638Z,6.93
2018-12-22T03:49:14.590Z,3.73
2018-12-22T03:51:42.476Z,6.13
2018-12-22T03:54:10.396Z,3.83
2018-12-22T03:56:38.331Z,4.40
2018-12-22T03:59:06.372Z,3.03
2018-12-22T04:01:34.330Z,3.27
2018-12-22T04:04:02.252Z,5.07
2018-12-22T04:06:30.251Z,6.57
2018-12-22T04:08:58.168Z,5.87
2018-12-22T04:11:26.113Z,4.10
2018-12-22T04:13:54.050Z,6.67
2018-12-22T04:16:21.957Z,7.00
2018-12-22T04:18:49.987Z,6.67
2018-12-22T04:21:17.935Z,4.13
2018-12-22T04:23:45.889Z,5.37
2018-12-22T04:26:13.858Z,9.17
2018-12-22T04:28:41.814Z,7.97
2018-12-22T04:31:09.794Z,6.57
2018-12-22T04:33:37.829Z,9.03
2018-12-22T04:36:05.745Z,6.87
2018-12-22T04:38:33.704Z,9.17
2018-12-22T04:41:01.720Z,7.70
2018-12-22T04:43:29.676Z,5.17
2018-12-22T04:45:57.700Z,6.23
2018-12-22T04:48:25.637Z,5.30
2018-12-22T04:50:53.573Z,4.23
2018-12-22T04:53:21.465Z,4.20
2018-12-22T04:55:49.414Z,4.87
2018-12-22T04:58:17.334Z,6.67
2018-12-22T05:00:45.290Z,5.37
2018-12-22T05:03:13.252Z,2.77
2018-12-22T05:05:41.246Z,4.17
2018-12-22T05:08:09.208Z,7.87
2018-12-22T05:10:37.220Z,6.43
2018-12-22T05:13:05.205Z,7.47
2018-12-22T05:15:33.212Z,6.13
2018-12-22T05:18:01.366Z,9.13
2018-12-22T05:20:29.339Z,5.87
2018-12-22T05:22:57.321Z,4.17
2018-12-22T05:25:25.256Z,3.83
2018-12-22T05:27:53.198Z,3.47
2018-12-22T05:30:21.229Z,3.57
2018-12-22T05:32:49.269Z,4.97
2018-12-22T05:35:17.206Z,5.80
2018-12-22T05:37:45.267Z,5.13
2018-12-22T05:40:13.472Z,6.27
2018-12-22T05:42:41.484Z,4.17
2018-12-22T05:45:09.535Z,4.47
2018-12-22T05:47:37.495Z,3.83
2018-12-22T05:50:05.925Z,5.07
2018-12-22T05:52:33.829Z,4.53
2018-12-22T05:55:01.761Z,4.77
2018-12-22T05:57:29.780Z,5.07
2018-12-22T06:00:00.807Z,8.53
2018-12-22T06:02:27.669Z,5.33
2018-12-22T06:04:55.645Z,3.87
2018-12-22T06:07:23.637Z,11.80
2018-12-22T06:09:51.608Z,6.90
2018-12-22T06:12:19.573Z,7.60
2018-12-22T06:14:47.641Z,4.77
2018-12-22T06:17:16.373Z,5.77
2018-12-22T06:19:44.309Z,7.57
2018-12-22T06:22:12.596Z,7.37
2018-12-22T06:24:40.556Z,6.00
2018-12-22T06:27:08.974Z,7.10
2018-12-22T06:29:37.054Z,4.90
2018-12-22T06:32:05.031Z,6.70
2018-12-22T06:34:33.294Z,12.30
2018-12-22T06:37:01.311Z,8.37
2018-12-22T06:39:29.730Z,6.60
2018-12-22T06:41:58.065Z,7.27
2018-12-22T06:44:26.569Z,6.57
2018-12-22T06:46:54.580Z,6.53
2018-12-22T06:49:22.715Z,7.37
2018-12-22T06:51:50.702Z,15.43
2018-12-22T06:54:18.985Z,13.70
2018-12-22T06:56:47.001Z,20.77
2018-12-22T06:59:15.360Z,13.77
2018-12-22T07:01:43.404Z,12.10
2018-12-22T07:04:11.662Z,12.20
2018-12-22T07:06:39.772Z,7.27
2018-12-22T07:09:08.048Z,9.57
2018-12-22T07:11:36.617Z,9.27
2018-12-22T07:14:04.659Z,7.37
2018-12-22T07:16:33.252Z,11.27
2018-12-22T07:19:01.262Z,12.77
2018-12-22T07:21:29.659Z,15.70
2018-12-22T07:23:57.649Z,9.90
2018-12-22T07:26:25.842Z,12.27
2018-12-22T07:28:54.069Z,8.70
2018-12-22T07:31:22.091Z,7.80
2018-12-22T07:33:50.298Z,11.40
2018-12-22T07:36:19.166Z,12.13
2018-12-22T07:38:48.526Z,12.13
2018-12-22T07:41:16.630Z,15.50
2018-12-22T07:43:44.648Z,12.40
2018-12-22T07:46:12.712Z,21.23
2018-12-22T07:48:40.753Z,16.97
2018-12-22T07:51:08.839Z,19.17
2018-12-22T07:53:36.936Z,8.83
2018-12-22T07:56:05.229Z,15.53
2018-12-22T07:58:33.301Z,14.53
2018-12-22T08:01:01.446Z,14.73
2018-12-22T08:03:29.497Z,15.50
2018-12-22T08:05:57.658Z,12.17
2018-12-22T08:08:25.804Z,11.30
2018-12-22T08:10:54.060Z,12.87
2018-12-22T08:13:22.176Z,14.50
2018-12-22T08:15:50.364Z,12.53
2018-12-22T08:18:18.576Z,8.90
2018-12-22T08:20:46.763Z,9.27
2018-12-22T08:23:14.819Z,12.70
2018-12-22T08:25:42.993Z,7.83
2018-12-22T08:28:11.088Z,11.07
2018-12-22T08:30:43.464Z,12.07
2018-12-22T08:33:09.535Z,16.60
2018-12-22T08:35:37.561Z,8.50
2018-12-22T08:38:05.793Z,15.67
2018-12-22T08:40:34.436Z,8.40
2018-12-22T08:43:02.571Z,9.50
2018-12-22T08:45:30.663Z,7.60
2018-12-22T08:47:59.326Z,47.27
2018-12-22T08:50:27.372Z,14.37
2018-12-22T08:52:55.887Z,10.63
2018-12-22T08:55:24.047Z,13.00
2018-12-22T08:57:52.048Z,11.00
2018-12-22T09:00:20.203Z,13.43
2018-12-22T09:02:48.598Z,21.17
2018-12-22T09:05:16.745Z,14.60
2018-12-22T09:07:44.854Z,16.37
2018-12-22T09:10:12.963Z,14.40
2018-12-22T09:12:40.972Z,14.07
2018-12-22T09:15:09.307Z,10.37
2018-12-22T09:17:37.378Z,14.70
2018-12-22T09:20:08.066Z,14.93
2018-12-22T09:22:36.257Z,13.43
2018-12-22T09:25:04.955Z,12.87
2018-12-22T09:27:33.229Z,14.83
2018-12-22T09:30:01.553Z,9.80
2018-12-22T16:07:44.266Z,32.27
2018-12-22T16:10:13.569Z,38.77
2018-12-22T16:15:39.007Z,24.30
2018-12-22T16:18:06.929Z,21.30
2018-12-22T16:20:35.007Z,22.73
2018-12-22T16:23:03.998Z,24.83
2018-12-22T16:25:32.256Z,16.60
2018-12-22T16:28:07.299Z,21.53
2018-12-22T16:30:41.631Z,15.37
2018-12-22T16:33:09.899Z,18.13
2018-12-22T16:35:38.361Z,23.93
2018-12-22T16:38:06.632Z,16.43
2018-12-22T16:40:34.924Z,16.07
2018-12-22T16:43:04.821Z,10.63
2018-12-22T16:45:33.191Z,7.77
2018-12-22T16:48:01.199Z,7.97
2018-12-22T16:50:31.520Z,6.63
2018-12-22T16:52:59.581Z,5.57
2018-12-22T16:55:28.073Z,6.43
2018-12-22T16:58:08.751Z,6.67
2018-12-22T17:00:41.563Z,7.70
2018-12-22T17:03:11.171Z,6.03
2018-12-22T17:05:39.659Z,6.63
2018-12-22T17:08:07.703Z,11.47
2018-12-22T17:10:41.973Z,7.90
2018-12-22T17:13:11.069Z,8.77
2018-12-22T17:15:42.566Z,9.17
2018-12-22T17:18:10.445Z,8.30
2018-12-22T17:20:38.487Z,5.77
2018-12-22T17:23:14.485Z,9.67
2018-12-22T17:25:52.574Z,7.30
2018-12-22T17:28:28.021Z,8.27
2018-12-22T17:30:50.867Z,7.87
2018-12-22T17:33:19.346Z,9.30
2018-12-22T17:35:47.461Z,10.53
2018-12-22T17:38:15.467Z,8.03
2018-12-22T17:40:43.446Z,5.97
2018-12-22T17:43:11.620Z,8.70
2018-12-22T17:45:39.709Z,9.57
2018-12-22T17:48:07.767Z,10.03
2018-12-22T17:50:35.821Z,11.07
2018-12-22T17:53:04.240Z,8.97
2018-12-22T17:55:32.423Z,10.53
2018-12-22T17:58:00.493Z,8.50
2018-12-22T18:00:28.861Z,8.47
2018-12-22T18:02:57.097Z,7.57
2018-12-22T18:05:25.391Z,8.73
2018-12-22T18:07:53.560Z,7.47
2018-12-22T18:10:21.810Z,7.17
2018-12-22T18:12:50.306Z,7.00
2018-12-22T18:15:20.998Z,6.67
2018-12-22T18:17:49.422Z,6.83
2018-12-22T18:20:18.066Z,6.70
2018-12-22T18:22:46.381Z,8.30
2018-12-22T18:25:16.174Z,7.77
2018-12-22T18:27:44.145Z,8.53
2018-12-22T18:30:12.677Z,7.07
2018-12-22T18:32:40.950Z,9.87
2018-12-22T18:35:10.165Z,6.67
2018-12-22T18:37:38.181Z,6.23
2018-12-22T18:40:12.162Z,5.97
2018-12-22T18:42:40.446Z,8.03
2018-12-22T18:45:10.361Z,7.60
2018-12-22T18:47:38.588Z,11.17
2018-12-22T18:50:12.982Z,7.10
2018-12-22T18:52:41.187Z,13.10
2018-12-22T18:55:09.452Z,9.27
2018-12-22T18:57:37.637Z,14.17
2018-12-22T19:00:13.618Z,14.93
2018-12-22T19:02:41.649Z,15.30
2018-12-22T19:05:09.773Z,18.03
2018-12-22T19:07:37.749Z,24.90
2018-12-22T19:10:12.601Z,15.20
2018-12-22T19:12:40.610Z,14.83
2018-12-22T19:15:08.701Z,15.47
2018-12-22T19:17:36.700Z,11.07
2018-12-22T19:20:08.295Z,12.07
2018-12-22T19:22:36.302Z,11.63
2018-12-22T19:25:04.657Z,16.30
2018-12-22T19:27:32.706Z,7.67
2018-12-22T19:30:00.785Z,8.27
2018-12-22T19:32:28.817Z,10.13
2018-12-22T19:34:56.805Z,9.97
2018-12-22T19:37:24.797Z,9.70
2018-12-22T19:39:52.798Z,18.23
2018-12-22T19:42:20.809Z,20.10
2018-12-22T19:44:48.767Z,21.73
2018-12-22T19:47:16.879Z,21.27
2018-12-22T19:49:44.848Z,16.33
2018-12-22T19:52:12.894Z,22.03
2018-12-22T19:54:40.892Z,22.97
2018-12-22T19:57:08.984Z,19.70
2018-12-22T19:59:38.709Z,23.53
2018-12-22T20:02:07.048Z,18.97
2018-12-22T20:04:35.210Z,14.67
2018-12-22T20:07:03.372Z,20.60
2018-12-22T20:09:31.301Z,24.23
2018-12-22T20:11:59.409Z,21.00
2018-12-22T20:14:27.295Z,20.33
2018-12-22T20:16:55.428Z,21.80
2018-12-22T20:19:23.398Z,19.10
2018-12-22T20:21:51.369Z,19.43
2018-12-22T20:24:19.350Z,22.57
2018-12-22T20:26:47.361Z,20.53
2018-12-22T20:29:15.343Z,20.07
2018-12-22T20:31:43.263Z,17.47
2018-12-22T20:34:11.490Z,21.50
2018-12-22T20:36:39.703Z,16.97
2018-12-22T20:39:07.792Z,12.23
2018-12-22T20:41:35.714Z,13.47
2018-12-22T20:44:03.616Z,11.97
2018-12-22T20:46:31.567Z,14.93
2018-12-22T20:48:59.445Z,15.00
2018-12-22T20:51:27.397Z,14.70
2018-12-22T20:53:55.312Z,19.73
2018-12-22T20:56:23.226Z,21.27
2018-12-22T20:58:51.217Z,22.67
2018-12-22T21:01:19.238Z,18.63
2018-12-22T21:03:47.608Z,20.23
2018-12-22T21:06:20.175Z,18.63
2018-12-22T21:08:48.232Z,18.73
2018-12-22T21:11:16.295Z,17.30
2018-12-22T21:13:44.313Z,16.00
2018-12-22T21:16:12.278Z,14.30
2018-12-22T21:18:40.273Z,13.77
2018-12-22T21:21:08.139Z,16.43
2018-12-22T21:23:36.023Z,15.87
2018-12-22T21:26:03.956Z,14.53
2018-12-22T21:28:31.813Z,8.83
2018-12-22T21:30:59.755Z,9.27
2018-12-22T21:33:27.755Z,8.50
2018-12-22T21:35:55.734Z,19.40
2018-12-22T21:38:23.770Z,23.50
2018-12-22T21:40:53.075Z,18.73
2018-12-22T21:43:21.162Z,14.87
2018-12-22T21:45:49.330Z,16.93
2018-12-22T21:48:17.306Z,14.87
2018-12-22T21:50:45.231Z,18.90
2018-12-22T21:53:13.209Z,12.87
2018-12-22T21:55:41.262Z,13.00
2018-12-22T21:58:09.481Z,8.77
2018-12-22T22:00:37.571Z,13.60
2018-12-22T22:03:05.542Z,13.90
2018-12-22T22:05:33.642Z,14.27
2018-12-22T22:08:01.626Z,13.23
2018-12-22T22:10:29.600Z,17.30
2018-12-22T22:12:57.527Z,22.90
2018-12-22T22:15:25.488Z,29.53
2018-12-22T22:17:53.516Z,21.87
2018-12-22T22:20:21.421Z,19.73
2018-12-22T22:22:49.299Z,25.73
2018-12-22T22:25:17.207Z,26.90
2018-12-22T22:27:45.048Z,26.50
2018-12-22T22:30:13.049Z,21.37
2018-12-22T22:32:41.018Z,23.00
2018-12-22T22:35:08.888Z,30.60
2018-12-22T22:37:36.841Z,31.43
2018-12-22T22:40:04.846Z,25.77
2018-12-22T22:42:32.744Z,26.23
2018-12-22T22:45:00.635Z,27.20
2018-12-22T22:47:28.531Z,27.43
2018-12-22T22:49:56.507Z,29.97
2018-12-22T22:52:24.484Z,29.97
2018-12-22T22:54:52.416Z,26.03
2018-12-22T22:57:20.335Z,23.90
2018-12-22T22:59:48.431Z,25.53
2018-12-22T23:02:16.394Z,23.27
2018-12-22T23:04:44.258Z,21.33
2018-12-22T23:07:12.191Z,19.80
2018-12-22T23:09:40.160Z,21.33
2018-12-22T23:12:08.062Z,20.87
2018-12-22T23:14:35.961Z,20.37
2018-12-22T23:17:03.903Z,17.33
2018-12-22T23:19:31.817Z,18.10
2018-12-22T23:21:59.786Z,17.77
2018-12-22T23:24:27.661Z,25.63
2018-12-22T23:26:55.710Z,26.53
2018-12-22T23:29:23.633Z,27.10
2018-12-22T23:31:51.488Z,18.10
2018-12-22T23:34:19.506Z,21.37
2018-12-22T23:36:47.380Z,20.80
2018-12-22T23:39:15.258Z,14.30
2018-12-22T23:41:43.161Z,17.30
2018-12-22T23:44:11.031Z,25.93
2018-12-22T23:46:38.978Z,16.43
2018-12-22T23:49:06.848Z,20.10
2018-12-22T23:51:34.720Z,18.70
2018-12-22T23:54:02.611Z,20.60
2018-12-22T23:56:30.523Z,14.47
2018-12-22T23:58:58.429Z,13.20
